Terminal Aerodrome Forecast
Issued by NWS

Home | Current Version | Previous Version | Graphics & Text | Print | Product List | Glossary On
Versions: 1 2 3 4 5 6 7 8 9 10 11 12 13
789
FTUS43 KGRB 202335
TAFAUW
TAF
KAUW 202335Z 2100/2124 VRB03KT P6SM BKN200
     FM211000 31008G15KT P6SM SCT040
     FM211500 34011G19KT P6SM SCT050
     FM212300 34008KT P6SM SCT050=

USA.gov is the U.S. government's official web portal to all federal, state and local government web resources and services.